Time;durP1;ratioP1;P1;durP2;ratioP2;P2;SDS_P1;SDS_P2;PMS_P1;PMS_P2;Temp;Humidity;BMP_temperature;BMP_pressure;BME280_temperature;BME280_humidity;BME280_pressure;Samples;Min_cycle;Max_cycle;Signal;HPM_P1;HPM_P2
2022/02/01 00:01:25;;;;;;;0.40;0.40;;;;;;;;;;5003503;28;20923;-73
2022/02/01 00:03:58;;;;;;;0.00;0.00;;;;;;;;;;5003418;28;20204;-74
2022/02/01 00:06:40;;;;;;;0.00;0.00;;;;;;;;;;4999100;28;20256;-73
2022/02/01 00:09:17;;;;;;;0.00;0.00;;;;;;;;;;5005986;28;20209;-74
2022/02/01 00:11:56;;;;;;;0.00;0.00;;;;;;;;;;5001475;28;20662;-73
2022/02/01 00:14:32;;;;;;;0.00;0.00;;;;;;;;;;5004862;28;20252;-71
2022/02/01 00:17:21;;;;;;;0.00;0.00;;;;;;;;;;5003405;28;20287;-72
2022/02/01 00:20:07;;;;;;;0.00;0.00;;;;;;;;;;5002245;28;20212;-72
2022/02/01 00:33:58;;;;;;;0.00;0.00;;;;;;;;;;5005156;28;20208;-74
2022/02/01 00:36:31;;;;;;;0.10;0.10;;;;;;;;;;5003054;28;20200;-73
2022/02/01 00:39:02;;;;;;;0.00;0.00;;;;;;;;;;5004131;28;20197;-72
2022/02/01 00:41:31;;;;;;;0.00;0.00;;;;;;;;;;5003345;28;20197;-74
2022/02/01 00:44:01;;;;;;;0.00;0.00;;;;;;;;;;5003001;28;20201;-73
2022/02/01 00:46:29;;;;;;;0.00;0.00;;;;;;;;;;5003055;28;20237;-74
2022/02/01 00:48:57;;;;;;;0.10;0.00;;;;;;;;;;5003205;28;20203;-73
2022/02/01 00:51:24;;;;;;;0.00;0.00;;;;;;;;;;5002436;28;20203;-73
2022/02/01 00:53:52;;;;;;;0.00;0.00;;;;;;;;;;5001822;28;21212;-73
2022/02/01 00:56:19;;;;;;;0.00;0.00;;;;;;;;;;5003514;28;20208;-73
2022/02/01 00:58:46;;;;;;;0.00;0.00;;;;;;;;;;5000833;28;20229;-73
2022/02/01 01:01:16;;;;;;;0.00;0.00;;;;;;;;;;5003505;28;20201;-73
2022/02/01 01:03:44;;;;;;;0.30;0.30;;;;;;;;;;4998629;28;20550;-73
2022/02/01 01:06:12;;;;;;;0.00;0.00;;;;;;;;;;5002550;28;20221;-74
2022/02/01 01:08:40;;;;;;;0.00;0.00;;;;;;;;;;5002141;28;20572;-73
2022/02/01 01:11:08;;;;;;;0.00;0.00;;;;;;;;;;5000451;28;20200;-74
2022/02/01 01:14:18;;;;;;;0.00;0.00;;;;;;;;;;5001784;28;20232;-74
2022/02/01 01:17:09;;;;;;;0.00;0.00;;;;;;;;;;5003524;28;20201;-74
2022/02/01 01:44:25;;;;;;;0.00;0.00;;;;;;;;;;4976993;28;20201;-72
2022/02/01 01:55:10;;;;;;;0.00;0.00;;;;;;;;;;5003392;28;20208;-75
2022/02/01 01:57:38;;;;;;;0.17;0.17;;;;;;;;;;5000535;28;20714;-74
2022/02/01 02:00:08;;;;;;;0.00;0.00;;;;;;;;;;5002115;28;20208;-73
2022/02/01 02:02:35;;;;;;;0.30;0.10;;;;;;;;;;5000195;28;20323;-72
2022/02/01 02:05:04;;;;;;;0.00;0.00;;;;;;;;;;5001597;28;20197;-72
2022/02/01 02:07:32;;;;;;;0.20;0.20;;;;;;;;;;5001842;28;20216;-72
2022/02/01 02:10:00;;;;;;;0.30;0.20;;;;;;;;;;5001026;28;20205;-72
2022/02/01 02:12:50;;;;;;;0.00;0.00;;;;;;;;;;5001264;28;20213;-72
2022/02/01 02:15:24;;;;;;;0.77;0.23;;;;;;;;;;5008999;28;20197;-73
2022/02/01 02:17:52;;;;;;;0.00;0.00;;;;;;;;;;5002575;28;20716;-73
2022/02/01 02:20:24;;;;;;;0.00;0.00;;;;;;;;;;5002288;28;20576;-72
2022/02/01 02:22:53;;;;;;;0.00;0.00;;;;;;;;;;5007504;28;20272;-72
2022/02/01 02:25:21;;;;;;;0.10;0.10;;;;;;;;;;5009211;28;20197;-73
2022/02/01 02:27:49;;;;;;;0.00;0.00;;;;;;;;;;5004464;28;20228;-71
2022/02/01 02:30:17;;;;;;;0.33;0.33;;;;;;;;;;5004124;28;21013;-72
2022/02/01 02:32:45;;;;;;;0.20;0.10;;;;;;;;;;5004808;28;20788;-72
2022/02/01 02:35:13;;;;;;;0.53;0.30;;;;;;;;;;5009228;28;20204;-71
2022/02/01 02:37:40;;;;;;;0.13;0.10;;;;;;;;;;5000519;28;20203;-72
2022/02/01 02:40:20;;;;;;;0.00;0.00;;;;;;;;;;5003674;28;20209;-73
2022/02/01 02:45:34;;;;;;;0.97;0.63;;;;;;;;;;5006951;28;20282;-72
2022/02/01 02:48:01;;;;;;;0.00;0.00;;;;;;;;;;5006455;28;20231;-72
2022/02/01 02:50:29;;;;;;;0.20;0.20;;;;;;;;;;5001749;28;20572;-73
2022/02/01 02:52:57;;;;;;;0.23;0.23;;;;;;;;;;5004679;28;20205;-71
2022/02/01 02:55:31;;;;;;;0.27;0.17;;;;;;;;;;5000577;28;20666;-72
2022/02/01 02:57:59;;;;;;;0.00;0.00;;;;;;;;;;5007381;28;20230;-73
2022/02/01 03:00:27;;;;;;;0.00;0.00;;;;;;;;;;5004385;28;20198;-73
2022/02/01 03:02:55;;;;;;;0.10;0.00;;;;;;;;;;5002360;28;20204;-72
2022/02/01 03:05:22;;;;;;;0.10;0.10;;;;;;;;;;5006852;28;20303;-72
2022/02/01 03:07:50;;;;;;;0.73;0.63;;;;;;;;;;5003945;28;20237;-72
2022/02/01 03:10:17;;;;;;;0.60;0.53;;;;;;;;;;5002603;28;20207;-74
2022/02/01 03:13:06;;;;;;;0.50;0.37;;;;;;;;;;5001853;28;20299;-72
2022/02/01 03:15:42;;;;;;;0.00;0.00;;;;;;;;;;5006901;28;20642;-73
2022/02/01 03:20:55;;;;;;;0.10;0.10;;;;;;;;;;4998106;28;20664;-72
2022/02/01 03:23:22;;;;;;;2.17;0.37;;;;;;;;;;4996311;28;20197;-72
2022/02/01 03:25:49;;;;;;;0.37;0.37;;;;;;;;;;4998708;28;20200;-71
2022/02/01 03:28:18;;;;;;;1.73;0.50;;;;;;;;;;5000255;28;20229;-72
2022/02/01 03:30:46;;;;;;;0.67;0.30;;;;;;;;;;4997825;28;20216;-73
2022/02/01 03:33:13;;;;;;;0.10;0.10;;;;;;;;;;4998179;28;20200;-71
2022/02/01 03:35:41;;;;;;;0.10;0.10;;;;;;;;;;4999100;28;20207;-71
2022/02/01 03:38:08;;;;;;;0.37;0.37;;;;;;;;;;5000830;28;21226;-72
2022/02/01 03:40:35;;;;;;;0.60;0.57;;;;;;;;;;5001436;28;20193;-71
2022/02/01 03:43:03;;;;;;;0.53;0.53;;;;;;;;;;4999032;28;20205;-72
2022/02/01 03:45:32;;;;;;;1.23;0.77;;;;;;;;;;4999439;28;20224;-71
2022/02/01 03:47:59;;;;;;;2.73;0.87;;;;;;;;;;4998673;28;20252;-72
2022/02/01 03:50:27;;;;;;;0.70;0.70;;;;;;;;;;4998397;28;20566;-72
2022/02/01 03:52:54;;;;;;;10.47;0.83;;;;;;;;;;4998115;28;20201;-73
2022/02/01 03:55:22;;;;;;;0.83;0.63;;;;;;;;;;4998067;28;20208;-71
2022/02/01 03:57:49;;;;;;;1.60;1.13;;;;;;;;;;4999072;28;20287;-72
2022/02/01 04:00:17;;;;;;;4.50;1.07;;;;;;;;;;4996193;28;20205;-72
2022/02/01 04:02:45;;;;;;;0.00;0.00;;;;;;;;;;5000283;28;20212;-71
2022/02/01 04:05:13;;;;;;;1.13;1.03;;;;;;;;;;4999273;28;20205;-73
2022/02/01 04:07:46;;;;;;;0.50;0.23;;;;;;;;;;4996763;28;20237;-73
2022/02/01 04:10:13;;;;;;;0.23;0.23;;;;;;;;;;4999142;28;20216;-72
2022/02/01 04:12:41;;;;;;;0.90;0.90;;;;;;;;;;4998423;28;20205;-73
2022/02/01 04:15:09;;;;;;;7.53;0.53;;;;;;;;;;4997858;28;20201;-73
2022/02/01 04:17:39;;;;;;;0.50;0.50;;;;;;;;;;4999193;28;20205;-73
2022/02/01 04:20:08;;;;;;;1.53;1.13;;;;;;;;;;4998179;28;20217;-73
2022/02/01 04:22:36;;;;;;;0.20;0.20;;;;;;;;;;4999731;28;20197;-73
2022/02/01 04:25:04;;;;;;;0.17;0.17;;;;;;;;;;5000454;28;20567;-73
2022/02/01 04:27:31;;;;;;;1.40;1.00;;;;;;;;;;4998008;28;20225;-73
2022/02/01 04:30:06;;;;;;;5.20;0.40;;;;;;;;;;4998102;28;20221;-72
2022/02/01 04:32:35;;;;;;;1.00;0.97;;;;;;;;;;4998882;28;20628;-71
2022/02/01 04:35:03;;;;;;;0.30;0.30;;;;;;;;;;4999346;28;20204;-71
2022/02/01 04:37:32;;;;;;;0.07;0.07;;;;;;;;;;5003962;28;20205;-71
2022/02/01 04:39:59;;;;;;;0.50;0.40;;;;;;;;;;5003219;28;20204;-72
2022/02/01 04:42:30;;;;;;;0.77;0.57;;;;;;;;;;5000946;28;20288;-71
2022/02/01 04:44:58;;;;;;;2.73;0.93;;;;;;;;;;5000404;28;20213;-73
2022/02/01 04:47:30;;;;;;;0.90;0.80;;;;;;;;;;5002126;28;20235;-73
2022/02/01 04:49:58;;;;;;;4.40;1.00;;;;;;;;;;5000580;28;20201;-73
2022/02/01 04:52:26;;;;;;;4.80;1.20;;;;;;;;;;5001890;28;20201;-73
2022/02/01 04:54:55;;;;;;;0.17;0.17;;;;;;;;;;5001524;28;20209;-72
2022/02/01 04:57:22;;;;;;;0.50;0.50;;;;;;;;;;5001312;28;20278;-72
2022/02/01 04:59:50;;;;;;;0.13;0.13;;;;;;;;;;5002193;28;20197;-72
2022/02/01 05:02:17;;;;;;;1.00;0.53;;;;;;;;;;5005495;28;20208;-73
2022/02/01 05:04:45;;;;;;;0.80;0.80;;;;;;;;;;4999196;28;20193;-73
2022/02/01 05:07:12;;;;;;;1.30;1.23;;;;;;;;;;5001875;28;20243;-73
2022/02/01 05:09:39;;;;;;;9.53;2.10;;;;;;;;;;5002681;28;20293;-73
2022/02/01 05:12:10;;;;;;;0.40;0.30;;;;;;;;;;4999025;28;20287;-72
2022/02/01 05:14:37;;;;;;;0.80;0.80;;;;;;;;;;4998259;28;20243;-73
2022/02/01 05:17:05;;;;;;;2.43;2.17;;;;;;;;;;5001619;28;20288;-73
2022/02/01 05:19:47;;;;;;;1.40;1.03;;;;;;;;;;5001442;28;20201;-75
2022/02/01 05:22:17;;;;;;;3.10;1.87;;;;;;;;;;5001124;28;20213;-74
2022/02/01 05:24:47;;;;;;;0.37;0.37;;;;;;;;;;5003041;28;20658;-73
2022/02/01 05:27:16;;;;;;;4.00;0.90;;;;;;;;;;5003900;28;20236;-74
2022/02/01 05:29:43;;;;;;;0.33;0.30;;;;;;;;;;5000978;28;20662;-74
2022/02/01 05:32:23;;;;;;;0.63;0.63;;;;;;;;;;5000979;28;20201;-73
2022/02/01 05:34:52;;;;;;;1.27;1.17;;;;;;;;;;4998851;28;20212;-73
2022/02/01 05:37:19;;;;;;;0.30;0.30;;;;;;;;;;5002714;28;20875;-73
2022/02/01 05:39:47;;;;;;;1.90;1.13;;;;;;;;;;5002217;28;20200;-73
2022/02/01 05:42:20;;;;;;;0.30;0.30;;;;;;;;;;5001381;28;20196;-73
2022/02/01 05:44:48;;;;;;;0.70;0.70;;;;;;;;;;5000723;28;20267;-74
2022/02/01 05:47:16;;;;;;;0.87;0.37;;;;;;;;;;5002382;28;20237;-74
2022/02/01 05:49:44;;;;;;;0.20;0.20;;;;;;;;;;5002450;28;20205;-74
2022/02/01 05:52:11;;;;;;;1.53;0.93;;;;;;;;;;5000792;28;20201;-73
2022/02/01 05:54:39;;;;;;;1.90;1.80;;;;;;;;;;5003362;28;20193;-74
2022/02/01 05:57:08;;;;;;;0.33;0.33;;;;;;;;;;5000148;28;20542;-72
2022/02/01 05:59:38;;;;;;;0.60;0.60;;;;;;;;;;5004654;28;20205;-73
2022/02/01 06:02:07;;;;;;;2.87;0.80;;;;;;;;;;5001703;28;20602;-73
2022/02/01 06:04:34;;;;;;;0.53;0.53;;;;;;;;;;5000147;28;20205;-73
2022/02/01 06:07:02;;;;;;;4.63;1.43;;;;;;;;;;5003689;28;20288;-72
2022/02/01 06:09:29;;;;;;;6.23;2.03;;;;;;;;;;5001968;28;20205;-72
2022/02/01 06:11:56;;;;;;;4.03;3.60;;;;;;;;;;4999287;28;20666;-73
2022/02/01 06:14:25;;;;;;;0.00;0.00;;;;;;;;;;5000476;28;20205;-74
2022/02/01 06:16:53;;;;;;;2.00;0.83;;;;;;;;;;5001767;28;20205;-73
2022/02/01 06:19:21;;;;;;;0.20;0.10;;;;;;;;;;5000751;28;20201;-74
2022/02/01 06:21:48;;;;;;;0.20;0.20;;;;;;;;;;5000444;28;20202;-74
2022/02/01 06:24:18;;;;;;;1.17;1.17;;;;;;;;;;5000083;28;21058;-74
2022/02/01 06:26:46;;;;;;;1.97;1.33;;;;;;;;;;5000533;28;20670;-75
2022/02/01 06:29:13;;;;;;;0.77;0.77;;;;;;;;;;5000095;28;20708;-74
2022/02/01 06:31:41;;;;;;;1.80;1.20;;;;;;;;;;5000749;28;20213;-73
2022/02/01 06:34:10;;;;;;;1.37;1.10;;;;;;;;;;5000110;28;20197;-73
2022/02/01 06:36:37;;;;;;;1.10;0.70;;;;;;;;;;5000856;28;20201;-75
2022/02/01 06:39:07;;;;;;;4.83;1.10;;;;;;;;;;5002969;28;20216;-74
2022/02/01 06:41:34;;;;;;;0.50;0.50;;;;;;;;;;5001233;28;20216;-73
2022/02/01 06:44:03;;;;;;;0.67;0.67;;;;;;;;;;5002441;28;20207;-73
2022/02/01 06:46:31;;;;;;;0.20;0.20;;;;;;;;;;5000662;28;20201;-73
2022/02/01 06:48:59;;;;;;;1.40;1.10;;;;;;;;;;5000093;28;20279;-72
2022/02/01 06:51:29;;;;;;;6.73;1.47;;;;;;;;;;5001387;28;20199;-73
2022/02/01 06:53:56;;;;;;;3.00;1.20;;;;;;;;;;4999659;28;20208;-73
2022/02/01 06:56:29;;;;;;;0.53;0.53;;;;;;;;;;5001007;28;20271;-72
2022/02/01 06:58:57;;;;;;;1.03;0.60;;;;;;;;;;4998263;28;20221;-73
2022/02/01 07:01:24;;;;;;;0.10;0.10;;;;;;;;;;5001169;28;20271;-73
2022/02/01 07:03:52;;;;;;;1.60;1.47;;;;;;;;;;5001021;28;20201;-72
2022/02/01 07:06:19;;;;;;;1.37;1.27;;;;;;;;;;5000657;28;20707;-72
2022/02/01 07:08:49;;;;;;;1.50;1.40;;;;;;;;;;5000911;28;20621;-72
2022/02/01 07:11:17;;;;;;;2.20;1.60;;;;;;;;;;5001163;28;20894;-72
2022/02/01 07:13:47;;;;;;;1.20;1.10;;;;;;;;;;5000897;28;20280;-73
2022/02/01 07:16:15;;;;;;;1.60;1.50;;;;;;;;;;5001268;28;20209;-72
2022/02/01 07:18:42;;;;;;;1.60;1.50;;;;;;;;;;4999937;28;20205;-73
2022/02/01 07:21:10;;;;;;;0.83;0.80;;;;;;;;;;4998906;28;20200;-74
2022/02/01 07:23:38;;;;;;;1.07;1.07;;;;;;;;;;4998827;28;20217;-74
2022/02/01 07:26:08;;;;;;;1.23;1.13;;;;;;;;;;4998705;28;20209;-74
2022/02/01 07:28:36;;;;;;;9.80;2.73;;;;;;;;;;4997210;28;20228;-74
2022/02/01 07:31:04;;;;;;;2.60;2.40;;;;;;;;;;4999683;28;20201;-73
2022/02/01 07:33:32;;;;;;;1.07;0.97;;;;;;;;;;4998862;28;20212;-74
2022/02/01 07:36:01;;;;;;;1.70;1.60;;;;;;;;;;5000576;28;20208;-74
2022/02/01 07:38:29;;;;;;;1.97;1.83;;;;;;;;;;5001361;28;20197;-73
2022/02/01 07:40:57;;;;;;;1.60;1.30;;;;;;;;;;5000732;28;20219;-74
2022/02/01 07:43:30;;;;;;;1.20;1.07;;;;;;;;;;4997881;28;20220;-74
2022/02/01 07:45:59;;;;;;;4.07;2.57;;;;;;;;;;5000311;28;20232;-74
2022/02/01 07:48:27;;;;;;;1.17;1.10;;;;;;;;;;4999752;28;20329;-75
2022/02/01 07:50:54;;;;;;;1.77;1.50;;;;;;;;;;5000195;28;20212;-74
2022/02/01 07:53:22;;;;;;;2.47;2.27;;;;;;;;;;4998767;28;20201;-75
2022/02/01 07:55:49;;;;;;;0.77;0.77;;;;;;;;;;4999066;28;20208;-75
2022/02/01 07:58:16;;;;;;;1.93;1.83;;;;;;;;;;5006876;28;20278;-75
2022/02/01 08:00:45;;;;;;;1.40;1.30;;;;;;;;;;5007696;28;20662;-74
2022/02/01 08:03:13;;;;;;;2.57;2.13;;;;;;;;;;5006124;28;20572;-74
2022/02/01 08:05:41;;;;;;;6.93;1.07;;;;;;;;;;5006805;28;20670;-75
2022/02/01 08:08:09;;;;;;;2.27;2.07;;;;;;;;;;5005657;28;21018;-75
2022/02/01 08:10:42;;;;;;;3.13;1.77;;;;;;;;;;5011399;28;20197;-75
2022/02/01 08:19:08;;;;;;;1.20;1.17;;;;;;;;;;4984769;28;20216;-74
2022/02/01 08:21:43;;;;;;;4.03;1.43;;;;;;;;;;5005870;28;20199;-75
2022/02/01 08:24:11;;;;;;;1.03;0.93;;;;;;;;;;5004745;28;20288;-75
2022/02/01 08:26:38;;;;;;;1.60;1.50;;;;;;;;;;5001660;28;20284;-76
2022/02/01 08:29:06;;;;;;;7.67;1.37;;;;;;;;;;5001155;28;20232;-75
2022/02/01 08:31:35;;;;;;;6.43;3.60;;;;;;;;;;5003763;28;20212;-76
2022/02/01 08:34:03;;;;;;;3.57;1.80;;;;;;;;;;5001625;28;20205;-76
2022/02/01 08:36:30;;;;;;;1.10;1.00;;;;;;;;;;5008989;28;20197;-75
2022/02/01 08:38:58;;;;;;;1.93;0.77;;;;;;;;;;5008091;28;20208;-70
2022/02/01 08:41:27;;;;;;;2.67;2.00;;;;;;;;;;5005832;28;20201;-75
2022/02/01 08:43:56;;;;;;;1.53;1.33;;;;;;;;;;5005821;28;20193;-78
2022/02/01 08:46:24;;;;;;;1.20;1.13;;;;;;;;;;5006973;28;20193;-75
2022/02/01 08:48:53;;;;;;;3.53;2.60;;;;;;;;;;5003580;28;20233;-76
2022/02/01 08:51:23;;;;;;;11.30;3.30;;;;;;;;;;5003790;28;20230;-78
2022/02/01 08:53:56;;;;;;;6.47;1.47;;;;;;;;;;5003112;28;22114;-77
2022/02/01 08:59:09;;;;;;;1.40;1.27;;;;;;;;;;5009579;28;20231;-77
2022/02/01 09:01:36;;;;;;;0.70;0.70;;;;;;;;;;5011162;28;20208;-76
2022/02/01 09:04:05;;;;;;;2.10;1.87;;;;;;;;;;5004875;28;20658;-78
2022/02/01 09:06:34;;;;;;;2.27;1.43;;;;;;;;;;5004637;28;20208;-76
2022/02/01 09:09:01;;;;;;;5.60;1.90;;;;;;;;;;5003883;28;20213;-76
2022/02/01 09:11:29;;;;;;;5.23;1.90;;;;;;;;;;5011828;28;20197;-75
2022/02/01 09:13:56;;;;;;;0.53;0.50;;;;;;;;;;5004895;28;20658;-76
2022/02/01 09:16:23;;;;;;;1.30;1.30;;;;;;;;;;5004645;28;20197;-75
2022/02/01 09:18:51;;;;;;;5.00;1.73;;;;;;;;;;5008433;28;20212;-69
2022/02/01 09:21:20;;;;;;;2.77;1.73;;;;;;;;;;5007544;28;20284;-75
2022/02/01 09:23:47;;;;;;;7.13;1.40;;;;;;;;;;5004593;28;20201;-75
2022/02/01 09:26:15;;;;;;;10.33;1.87;;;;;;;;;;5011148;28;20764;-76
2022/02/01 09:28:42;;;;;;;1.17;1.13;;;;;;;;;;5011089;28;20221;-76
2022/02/01 09:31:10;;;;;;;1.63;0.87;;;;;;;;;;5005251;28;20216;-76
2022/02/01 09:33:38;;;;;;;2.67;1.33;;;;;;;;;;5002084;28;20201;-77
2022/02/01 09:36:07;;;;;;;2.27;2.00;;;;;;;;;;5011732;28;20697;-74
2022/02/01 09:38:35;;;;;;;7.27;2.87;;;;;;;;;;5013462;28;20197;-75
2022/02/01 09:41:03;;;;;;;2.40;1.30;;;;;;;;;;5007788;28;20694;-76
2022/02/01 09:43:31;;;;;;;1.47;1.37;;;;;;;;;;5006544;28;20212;-75
2022/02/01 09:46:00;;;;;;;1.07;0.97;;;;;;;;;;5011528;28;20746;-74
2022/02/01 09:48:27;;;;;;;8.57;2.40;;;;;;;;;;5010047;28;20566;-74
2022/02/01 09:50:55;;;;;;;1.20;1.10;;;;;;;;;;5010409;28;20207;-77
2022/02/01 09:53:22;;;;;;;2.53;2.33;;;;;;;;;;5003668;28;20208;-73
2022/02/01 09:55:51;;;;;;;2.43;1.23;;;;;;;;;;5002099;28;20213;-75
2022/02/01 09:58:19;;;;;;;2.27;2.17;;;;;;;;;;4998500;28;20237;-79
2022/02/01 10:00:52;;;;;;;8.90;1.20;;;;;;;;;;5000004;28;20212;-76
2022/02/01 10:03:20;;;;;;;0.73;0.70;;;;;;;;;;4999494;28;20197;-77
2022/02/01 10:06:05;;;;;;;2.20;2.00;;;;;;;;;;5004433;28;20227;-73
2022/02/01 10:08:33;;;;;;;0.70;0.50;;;;;;;;;;5007196;28;20203;-75
2022/02/01 10:11:02;;;;;;;2.30;2.10;;;;;;;;;;5005654;28;20201;-75
2022/02/01 10:13:33;;;;;;;3.37;1.83;;;;;;;;;;5003790;28;20209;-74
2022/02/01 10:16:04;;;;;;;1.80;1.50;;;;;;;;;;5003354;28;20201;-73
2022/02/01 10:18:33;;;;;;;1.10;1.00;;;;;;;;;;5004360;28;20205;-72
2022/02/01 10:21:06;;;;;;;4.47;1.27;;;;;;;;;;5008005;28;20201;-76
2022/02/01 10:23:34;;;;;;;2.17;1.97;;;;;;;;;;5005831;28;20697;-72
2022/02/01 10:26:05;;;;;;;3.43;1.53;;;;;;;;;;5006307;28;20201;-74
2022/02/01 10:31:32;;;;;;;4.43;1.37;;;;;;;;;;4999707;28;20209;-72
2022/02/01 10:34:14;;;;;;;4.30;2.20;;;;;;;;;;5010883;28;20200;-72
2022/02/01 10:36:42;;;;;;;8.23;1.67;;;;;;;;;;5010823;28;20820;-70
2022/02/01 10:39:20;;;;;;;7.90;1.90;;;;;;;;;;5008812;28;21078;-74
2022/02/01 10:41:56;;;;;;;5.00;2.10;;;;;;;;;;5009018;28;20291;-76
2022/02/01 10:44:24;;;;;;;2.83;1.40;;;;;;;;;;5007296;28;20236;-76
2022/02/01 10:46:52;;;;;;;4.27;1.30;;;;;;;;;;5012261;28;20577;-75
2022/02/01 10:49:28;;;;;;;3.50;1.63;;;;;;;;;;5008574;28;20705;-77
2022/02/01 10:52:03;;;;;;;4.13;3.23;;;;;;;;;;5006896;28;20207;-77
2022/02/01 10:54:32;;;;;;;1.77;1.63;;;;;;;;;;5008780;28;20215;-77
2022/02/01 10:57:01;;;;;;;1.37;1.07;;;;;;;;;;5008134;28;20204;-76
2022/02/01 10:59:28;;;;;;;7.13;1.23;;;;;;;;;;5003774;28;20825;-76
2022/02/01 11:01:59;;;;;;;3.43;1.90;;;;;;;;;;5007382;28;20208;-76
2022/02/01 11:04:28;;;;;;;5.93;1.63;;;;;;;;;;5014528;28;20205;-76
2022/02/01 11:06:56;;;;;;;4.90;1.60;;;;;;;;;;5017218;28;20324;-75
2022/02/01 11:09:24;;;;;;;3.27;1.70;;;;;;;;;;5010676;28;20228;-76
2022/02/01 11:11:53;;;;;;;7.57;1.80;;;;;;;;;;5013248;28;20204;-76
2022/02/01 11:14:22;;;;;;;7.93;2.23;;;;;;;;;;5017104;28;20233;-77
2022/02/01 11:16:50;;;;;;;2.73;2.33;;;;;;;;;;5016917;28;20242;-74
2022/02/01 11:19:17;;;;;;;0.57;0.57;;;;;;;;;;5004814;28;20677;-74
2022/02/01 11:21:46;;;;;;;7.57;1.70;;;;;;;;;;5010233;28;20201;-74
2022/02/01 11:24:30;;;;;;;4.60;2.90;;;;;;;;;;5004497;28;20777;-76
2022/02/01 11:27:03;;;;;;;1.67;1.20;;;;;;;;;;5012490;28;20569;-75
2022/02/01 11:29:49;;;;;;;2.50;1.67;;;;;;;;;;5007329;28;20294;-76
2022/02/01 11:32:19;;;;;;;14.07;1.40;;;;;;;;;;5006085;28;20204;-75
2022/02/01 11:34:46;;;;;;;15.97;2.67;;;;;;;;;;5005321;28;20209;-75
2022/02/01 11:37:17;;;;;;;8.47;2.90;;;;;;;;;;5008935;28;20216;-75
2022/02/01 11:39:51;;;;;;;12.47;3.20;;;;;;;;;;5008033;28;20725;-76
2022/02/01 11:42:19;;;;;;;17.87;2.57;;;;;;;;;;5009728;28;20276;-75
2022/02/01 11:44:49;;;;;;;3.30;1.70;;;;;;;;;;5013316;28;20674;-74
2022/02/01 11:47:20;;;;;;;1.27;1.00;;;;;;;;;;5014862;28;20283;-77
2022/02/01 11:49:52;;;;;;;2.73;2.40;;;;;;;;;;5012388;28;20709;-76
2022/02/01 11:52:20;;;;;;;7.67;2.43;;;;;;;;;;5015783;28;20670;-76
2022/02/01 11:54:48;;;;;;;2.30;1.27;;;;;;;;;;5015128;28;20211;-75
2022/02/01 11:57:18;;;;;;;3.70;2.17;;;;;;;;;;5013522;28;20251;-75
2022/02/01 11:59:58;;;;;;;8.80;1.73;;;;;;;;;;5012068;28;20200;-75
2022/02/01 12:02:30;;;;;;;6.97;2.07;;;;;;;;;;5009715;28;20207;-75
2022/02/01 12:05:08;;;;;;;13.23;2.43;;;;;;;;;;5005096;28;20201;-75
2022/02/01 12:07:42;;;;;;;4.13;1.93;;;;;;;;;;5006154;28;20201;-73
2022/02/01 12:10:13;;;;;;;9.30;1.77;;;;;;;;;;5004589;28;20633;-70
2022/02/01 12:12:42;;;;;;;2.37;1.40;;;;;;;;;;5004180;28;20337;-72
2022/02/01 12:15:11;;;;;;;2.13;1.50;;;;;;;;;;5004307;28;20200;-72
2022/02/01 12:17:42;;;;;;;5.30;1.77;;;;;;;;;;5002822;28;20204;-73
2022/02/01 12:20:11;;;;;;;2.77;2.23;;;;;;;;;;5004013;28;20212;-72
2022/02/01 12:22:41;;;;;;;8.37;2.23;;;;;;;;;;5004362;28;20200;-73
2022/02/01 12:25:10;;;;;;;6.07;1.30;;;;;;;;;;5003889;28;20193;-73
2022/02/01 12:27:39;;;;;;;5.13;1.87;;;;;;;;;;5007437;28;20276;-72
2022/02/01 12:30:07;;;;;;;8.07;1.33;;;;;;;;;;5006391;28;20244;-74
2022/02/01 12:32:37;;;;;;;11.63;1.70;;;;;;;;;;5004895;28;20197;-71
2022/02/01 12:35:05;;;;;;;4.97;1.33;;;;;;;;;;5003952;28;20205;-74
2022/02/01 12:37:33;;;;;;;2.53;1.43;;;;;;;;;;5001677;28;20201;-70
2022/02/01 12:40:07;;;;;;;4.67;0.60;;;;;;;;;;5004669;28;20205;-73
2022/02/01 12:42:39;;;;;;;5.47;0.97;;;;;;;;;;5003123;28;20205;-71
2022/02/01 12:47:49;;;;;;;0.60;0.60;;;;;;;;;;4995539;28;20217;-69
2022/02/01 12:50:17;;;;;;;1.50;1.17;;;;;;;;;;5009578;28;20576;-66
2022/02/01 12:52:44;;;;;;;1.80;1.40;;;;;;;;;;5008141;28;20285;-70
2022/02/01 12:55:13;;;;;;;2.13;1.13;;;;;;;;;;5006135;28;20209;-70
2022/02/01 12:57:41;;;;;;;4.43;1.57;;;;;;;;;;5008179;28;20334;-71
2022/02/01 13:00:13;;;;;;;3.23;1.17;;;;;;;;;;5007102;28;20197;-71
2022/02/01 13:02:40;;;;;;;6.50;1.07;;;;;;;;;;5004072;28;20204;-71
2022/02/01 13:05:12;;;;;;;5.70;1.87;;;;;;;;;;5008220;28;20573;-71
2022/02/01 13:07:51;;;;;;;3.83;1.07;;;;;;;;;;5010342;28;20197;-70
2022/02/01 13:13:35;;;;;;;1.53;0.93;;;;;;;;;;5008329;28;20725;-71
2022/02/01 13:16:18;;;;;;;2.60;1.00;;;;;;;;;;5009666;28;20232;-70
2022/02/01 13:21:32;;;;;;;4.20;0.93;;;;;;;;;;5010123;28;20283;-70
2022/02/01 13:24:00;;;;;;;3.20;1.60;;;;;;;;;;5008831;28;20259;-70
2022/02/01 13:26:29;;;;;;;0.67;0.67;;;;;;;;;;5009550;28;20296;-69
2022/02/01 13:28:57;;;;;;;7.03;2.90;;;;;;;;;;5011081;28;20676;-70
2022/02/01 13:31:29;;;;;;;4.03;2.27;;;;;;;;;;5010594;28;20272;-70
2022/02/01 13:34:00;;;;;;;1.77;1.00;;;;;;;;;;5010531;28;20208;-70
2022/02/01 13:36:29;;;;;;;1.20;0.90;;;;;;;;;;5011141;28;20209;-69
2022/02/01 13:38:58;;;;;;;3.90;1.50;;;;;;;;;;5008992;28;20621;-69
2022/02/01 13:41:27;;;;;;;1.80;0.83;;;;;;;;;;5004357;28;20201;-70
2022/02/01 13:43:55;;;;;;;1.40;1.40;;;;;;;;;;5002251;28;20205;-69
2022/02/01 13:46:24;;;;;;;3.00;1.67;;;;;;;;;;5002542;28;20205;-67
2022/02/01 13:48:59;;;;;;;2.80;1.07;;;;;;;;;;5001844;28;20201;-70
2022/02/01 13:51:27;;;;;;;4.23;1.73;;;;;;;;;;5002613;28;20228;-70
2022/02/01 13:54:00;;;;;;;1.80;0.77;;;;;;;;;;5003527;28;20208;-69
2022/02/01 13:56:29;;;;;;;3.83;1.30;;;;;;;;;;5002002;28;20204;-70
2022/02/01 13:59:08;;;;;;;1.63;0.97;;;;;;;;;;5002188;28;20268;-70
2022/02/01 14:01:35;;;;;;;1.67;1.50;;;;;;;;;;5001904;28;20201;-69
2022/02/01 14:04:06;;;;;;;2.27;0.70;;;;;;;;;;5002221;28;20647;-70
2022/02/01 14:06:45;;;;;;;3.43;0.70;;;;;;;;;;5002616;28;20192;-69
2022/02/01 14:09:26;;;;;;;13.40;1.53;;;;;;;;;;5001147;28;20209;-70
2022/02/01 14:16:09;;;;;;;20.83;2.07;;;;;;;;;;4991974;28;20670;-70
2022/02/01 14:26:16;;;;;;;2.03;1.03;;;;;;;;;;5002203;28;20201;-69
2022/02/01 14:28:50;;;;;;;7.30;1.50;;;;;;;;;;5002138;28;20197;-69
2022/02/01 14:34:07;;;;;;;0.63;0.47;;;;;;;;;;5001922;28;20585;-70
2022/02/01 14:36:38;;;;;;;0.40;0.37;;;;;;;;;;5002766;28;20503;-69
2022/02/01 14:42:52;;;;;;;7.33;1.43;;;;;;;;;;5000369;28;20894;-70
2022/02/01 14:44:53;;;;;;;2.77;1.30;;;;;;;;;;5002422;28;20217;-70
2022/02/01 14:47:21;;;;;;;7.73;1.70;;;;;;;;;;5000453;28;20207;-71
2022/02/01 14:49:49;;;;;;;1.70;0.90;;;;;;;;;;5000505;28;20701;-69
2022/02/01 14:52:17;;;;;;;2.07;1.00;;;;;;;;;;5001545;28;20224;-72
2022/02/01 14:54:47;;;;;;;0.20;0.20;;;;;;;;;;5002390;28;20208;-69
2022/02/01 15:11:23;;;;;;;0.87;0.80;;;;;;;;;;5003934;28;20278;-68
2022/02/01 15:13:52;;;;;;;1.13;0.73;;;;;;;;;;5003254;28;20674;-69
2022/02/01 15:16:20;;;;;;;1.77;0.47;;;;;;;;;;5002937;28;20656;-69
2022/02/01 15:18:48;;;;;;;0.10;0.10;;;;;;;;;;5012023;28;20934;-70
2022/02/01 15:21:15;;;;;;;0.00;0.00;;;;;;;;;;5010146;28;20197;-70
2022/02/01 15:23:42;;;;;;;6.70;0.80;;;;;;;;;;5009150;28;20574;-69
2022/02/01 15:26:10;;;;;;;2.20;0.60;;;;;;;;;;5002467;28;20670;-69
2022/02/01 15:28:38;;;;;;;4.20;0.73;;;;;;;;;;5005419;28;20201;-70
2022/02/01 15:31:07;;;;;;;0.93;0.50;;;;;;;;;;5001705;28;20260;-70
2022/02/01 15:33:34;;;;;;;0.00;0.00;;;;;;;;;;5003284;28;20201;-69
2022/02/01 15:36:03;;;;;;;0.80;0.60;;;;;;;;;;5004976;28;20203;-69
2022/02/01 15:38:37;;;;;;;1.03;0.67;;;;;;;;;;5003179;28;20197;-69
2022/02/01 15:57:43;;;;;;;3.03;1.33;;;;;;;;;;5003081;28;21094;-71
2022/02/01 16:00:18;;;;;;;0.20;0.20;;;;;;;;;;5001306;28;20228;-71
2022/02/01 16:02:47;;;;;;;0.10;0.10;;;;;;;;;;5004193;28;20204;-70
2022/02/01 16:05:15;;;;;;;0.23;0.23;;;;;;;;;;5005083;28;20284;-67
2022/02/01 16:07:44;;;;;;;0.00;0.00;;;;;;;;;;5002128;28;20197;-66
2022/02/01 16:10:19;;;;;;;1.40;0.73;;;;;;;;;;5001626;28;20200;-70
2022/02/01 16:12:51;;;;;;;0.63;0.50;;;;;;;;;;5004216;28;20204;-69
2022/02/01 16:15:19;;;;;;;1.10;0.20;;;;;;;;;;5011133;28;20224;-68
2022/02/01 16:17:50;;;;;;;1.00;0.77;;;;;;;;;;5010704;28;20248;-69
2022/02/01 16:20:17;;;;;;;0.40;0.40;;;;;;;;;;5009187;28;20674;-69
2022/02/01 16:22:44;;;;;;;1.07;0.30;;;;;;;;;;5009690;28;20201;-70
2022/02/01 16:25:12;;;;;;;0.13;0.13;;;;;;;;;;5011043;28;20283;-68
2022/02/01 16:27:40;;;;;;;2.20;0.30;;;;;;;;;;5010583;28;20254;-69
2022/02/01 16:30:14;;;;;;;1.57;0.90;;;;;;;;;;5011504;28;20200;-69
2022/02/01 16:32:41;;;;;;;0.13;0.13;;;;;;;;;;5011438;28;20209;-68
2022/02/01 16:35:10;;;;;;;3.30;0.57;;;;;;;;;;5011975;28;21460;-69
2022/02/01 16:37:38;;;;;;;6.03;0.57;;;;;;;;;;5013442;28;20201;-68
2022/02/01 16:40:06;;;;;;;0.93;0.37;;;;;;;;;;5014138;28;20197;-69
2022/02/01 16:42:38;;;;;;;0.37;0.37;;;;;;;;;;5013459;28;20363;-68
2022/02/01 16:45:08;;;;;;;0.00;0.00;;;;;;;;;;5013946;28;20197;-68
2022/02/01 16:47:36;;;;;;;0.40;0.40;;;;;;;;;;5012759;28;20201;-68
2022/02/01 16:50:05;;;;;;;0.10;0.10;;;;;;;;;;5010008;28;20204;-66
2022/02/01 16:52:40;;;;;;;0.30;0.30;;;;;;;;;;5011130;28;21021;-67
2022/02/01 16:55:13;;;;;;;1.27;0.50;;;;;;;;;;5013271;28;20284;-70
2022/02/01 16:57:50;;;;;;;1.27;0.47;;;;;;;;;;5013723;28;20714;-70